F/V La Roumasse — FHUV — position and weather

sailwx.info

Track history (hours):
 
Tides and Currents Weather Stations Pressure Air Temp Water Temp Dewpoint Dewpoint Depression Visibility Wind Speed Wind Dir Waves Ship Positions

F/V La Roumasse

Last reported at 2018-Jun-16 17:56 UTC. Time now 2018-Jun-18 11:41 UTC.
Position N 46°40' W 002°02'.

Length 17 m; draft 3.3 m.

Type: Fishing. MMSI: 227123700.

Date/timePositionNaut miles runAvg speedWind from/ knotsBaromVisibWave heightAir tempDewpointWater temp
2018-Jun-16 17:56N 46°40' W 002°02'4 8.3
2018-Jun-16 17:30N 46°41' W 001°57'  
2018-Jun-14 13:10N 46°42' W 001°56'1 6.3
2018-Jun-14 13:00N 46°41' W 001°58'33 4.6
2018-Jun-14 05:53N 47°07' W 002°29'5 7.1
2018-Jun-14 05:10N 47°02' W 002°30'1 8.1
2018-Jun-14 04:59N 47°00' W 002°30'14 7.6
2018-Jun-14 03:07N 46°46' W 002°29'21 1.6
2018-Jun-13 14:20N 46°37' W 002°03'2 7.6
2018-Jun-13 14:00N 46°39' W 002°01'4 7.4
2018-Jun-13 13:31N 46°41' W 001°57'1 1.1
2018-Jun-13 13:00N 46°42' W 001°57'0 0.1
2018-Jun-13 12:01N 46°42' W 001°56'0 3.6
2018-Jun-13 12:00N 46°42' W 001°56'34 5.8
2018-Jun-13 06:05N 47°10' W 002°25'5 6.2
2018-Jun-13 05:22N 47°06' W 002°29'15 7.8
2018-Jun-13 03:24N 46°52' W 002°21'4 8.0
2018-Jun-13 02:54N 46°49' W 002°17'4 7.9
2018-Jun-13 02:24N 46°45' W 002°14'6 8.2
2018-Jun-13 01:43N 46°43' W 002°07'2 8.7
2018-Jun-13 01:31N 46°43' W 002°04'5 8.8
2018-Jun-13 00:59N 46°41' W 001°58'1 2.4
2018-Jun-13 00:30N 46°42' W 001°57'36 4.6
2018-Jun-12 16:46N 46°53' W 002°46'3613.5
2018-Jun-12 14:07N 46°42' W 001°57'0 0.0
2018-Jun-12 13:58N 46°42' W 001°57'0 0.0
2018-Jun-12 13:30N 46°42' W 001°57'0 0.1
2018-Jun-12 11:59N 46°42' W 001°57'1 0.1
2018-Jun-12 01:14N 46°41' W 001°58'1 0.1
2018-Jun-11 18:15N 46°42' W 001°57'0 0.3
2018-Jun-11 17:59N 46°42' W 001°56'0 0.0
2018-Jun-11 17:30N 46°42' W 001°56'0 0.0
2018-Jun-11 16:56N 46°42' W 001°56'0 0.0
2018-Jun-11 16:27N 46°42' W 001°56'2 4.8
2018-Jun-11 16:00N 46°42' W 001°60'2 0.1
2018-Jun-10 22:41N 46°42' W 002°02'2 8.2
2018-Jun-10 22:25N 46°41' W 001°59'2 3.5
2018-Jun-10 21:57N 46°42' W 001°57'0 0.3
2018-Jun-10 21:30N 46°42' W 001°56'0 0.0
2018-Jun-10 21:00N 46°42' W 001°56'0 0.0
2018-Jun-10 20:26N 46°42' W 001°56'2 3.1
2018-Jun-10 19:56N 46°40' W 001°58'0 0.4
2018-Jun-10 19:30N 46°40' W 001°58'0 0.5
2018-Jun-10 19:00N 46°41' W 001°58'1 1.4
2018-Jun-10 18:30N 46°41' W 001°59'35 2.3
2018-Jun-10 03:25N 46°53' W 002°46'0 0.2
2018-Jun-10 03:00N 46°53' W 002°46'3 5.6
2018-Jun-10 02:24N 46°52' W 002°42'3 6.5
2018-Jun-10 01:52N 46°51' W 002°37'19 6.6
2018-Jun-09 22:59N 46°44' W 002°11'6 8.9
2018-Jun-09 22:21N 46°42' W 002°04'4 8.6
2018-Jun-09 21:52N 46°41' W 001°58'1 0.5
2018-Jun-09 20:01N 46°42' W 001°56'0 5.8
2018-Jun-09 20:00N 46°42' W 001°57'1 2.1
2018-Jun-09 19:30N 46°41' W 001°57'0 0.4
2018-Jun-09 18:50N 46°41' W 001°57'0 0.3
2018-Jun-09 18:29N 46°41' W 001°57'2 4.2
2018-Jun-09 18:00N 46°39' W 001°57'3 6.8
2018-Jun-09 17:30N 46°35' W 001°57'3 6.7
2018-Jun-09 17:00N 46°32' W 001°57'3 6.6
2018-Jun-09 16:30N 46°28' W 001°57'3 6.5
2018-Jun-09 16:00N 46°25' W 001°56'7 7.0
2018-Jun-09 14:58N 46°18' W 001°54'5 7.6
2018-Jun-09 14:17N 46°13' W 001°53'3 7.8
2018-Jun-09 13:55N 46°11' W 001°50'9 8.3
2018-Jun-09 12:50N 46°04' W 001°42'6 7.9
2018-Jun-09 12:06N 45°58' W 001°41'10 5.2
2018-Jun-09 10:08N 45°48' W 001°38'35 1.3
2018-Jun-08 08:08N 46°21' W 001°54'1 8.5
2018-Jun-08 07:58N 46°22' W 001°54'4 8.7
2018-Jun-08 07:30N 46°26' W 001°56'4 8.8
2018-Jun-08 07:00N 46°31' W 001°57'4 8.7
2018-Jun-08 06:30N 46°35' W 001°58'4 8.6
2018-Jun-08 06:00N 46°39' W 001°57'3 0.1
2018-Jun-07 11:40N 46°42' W 001°57'1 6.2
2018-Jun-07 11:31N 46°41' W 001°58'5 9.1
2018-Jun-07 11:00N 46°37' W 001°60'1 1.3
2018-Jun-07 10:30N 46°36' W 002°00'3 5.7
2018-Jun-07 10:00N 46°39' W 001°59'3 0.2
2018-Jun-06 18:13N 46°42' W 001°57'1 4.7
2018-Jun-06 18:00N 46°41' W 001°58'  
Track history (hours):
 
Tides and Currents Weather Stations Pressure Air Temp Water Temp Dewpoint Dewpoint Depression Visibility Wind Speed Wind Dir Waves Ship Positions

F/V La Roumasse

Last reported at 2018-Jun-16 17:56 UTC. Time now 2018-Jun-18 11:41 UTC.
Position N 46°40' W 002°02'.

Length 17 m; draft 3.3 m.

Type: Fishing. MMSI: 227123700.

Date/timePositionNaut miles runAvg speedWind from/ knotsBaromVisibWave heightAir tempDewpointWater temp
2018-Jun-16 17:56N 46°40' W 002°02'4 8.3
2018-Jun-16 17:30N 46°41' W 001°57'  
2018-Jun-14 13:10N 46°42' W 001°56'1 6.3
2018-Jun-14 13:00N 46°41' W 001°58'33 4.6
2018-Jun-14 05:53N 47°07' W 002°29'5 7.1
2018-Jun-14 05:10N 47°02' W 002°30'1 8.1
2018-Jun-14 04:59N 47°00' W 002°30'14 7.6
2018-Jun-14 03:07N 46°46' W 002°29'21 1.6
2018-Jun-13 14:20N 46°37' W 002°03'2 7.6
2018-Jun-13 14:00N 46°39' W 002°01'4 7.4
2018-Jun-13 13:31N 46°41' W 001°57'1 1.1
2018-Jun-13 13:00N 46°42' W 001°57'0 0.1
2018-Jun-13 12:01N 46°42' W 001°56'0 3.6
2018-Jun-13 12:00N 46°42' W 001°56'34 5.8
2018-Jun-13 06:05N 47°10' W 002°25'5 6.2
2018-Jun-13 05:22N 47°06' W 002°29'15 7.8
2018-Jun-13 03:24N 46°52' W 002°21'4 8.0
2018-Jun-13 02:54N 46°49' W 002°17'4 7.9
2018-Jun-13 02:24N 46°45' W 002°14'6 8.2
2018-Jun-13 01:43N 46°43' W 002°07'2 8.7
2018-Jun-13 01:31N 46°43' W 002°04'5 8.8
2018-Jun-13 00:59N 46°41' W 001°58'1 2.4
2018-Jun-13 00:30N 46°42' W 001°57'36 4.6
2018-Jun-12 16:46N 46°53' W 002°46'3613.5
2018-Jun-12 14:07N 46°42' W 001°57'0 0.0
2018-Jun-12 13:58N 46°42' W 001°57'0 0.0
2018-Jun-12 13:30N 46°42' W 001°57'0 0.1
2018-Jun-12 11:59N 46°42' W 001°57'1 0.1
2018-Jun-12 01:14N 46°41' W 001°58'1 0.1
2018-Jun-11 18:15N 46°42' W 001°57'0 0.3
2018-Jun-11 17:59N 46°42' W 001°56'0 0.0
2018-Jun-11 17:30N 46°42' W 001°56'0 0.0
2018-Jun-11 16:56N 46°42' W 001°56'0 0.0
2018-Jun-11 16:27N 46°42' W 001°56'2 4.8
2018-Jun-11 16:00N 46°42' W 001°60'2 0.1
2018-Jun-10 22:41N 46°42' W 002°02'2 8.2
2018-Jun-10 22:25N 46°41' W 001°59'2 3.5
2018-Jun-10 21:57N 46°42' W 001°57'0 0.3
2018-Jun-10 21:30N 46°42' W 001°56'0 0.0
2018-Jun-10 21:00N 46°42' W 001°56'0 0.0
2018-Jun-10 20:26N 46°42' W 001°56'2 3.1
2018-Jun-10 19:56N 46°40' W 001°58'0 0.4
2018-Jun-10 19:30N 46°40' W 001°58'0 0.5
2018-Jun-10 19:00N 46°41' W 001°58'1 1.4
2018-Jun-10 18:30N 46°41' W 001°59'35 2.3
2018-Jun-10 03:25N 46°53' W 002°46'0 0.2
2018-Jun-10 03:00N 46°53' W 002°46'3 5.6
2018-Jun-10 02:24N 46°52' W 002°42'3 6.5
2018-Jun-10 01:52N 46°51' W 002°37'19 6.6
2018-Jun-09 22:59N 46°44' W 002°11'6 8.9
2018-Jun-09 22:21N 46°42' W 002°04'4 8.6
2018-Jun-09 21:52N 46°41' W 001°58'1 0.5
2018-Jun-09 20:01N 46°42' W 001°56'0 5.8
2018-Jun-09 20:00N 46°42' W 001°57'1 2.1
2018-Jun-09 19:30N 46°41' W 001°57'0 0.4
2018-Jun-09 18:50N 46°41' W 001°57'0 0.3
2018-Jun-09 18:29N 46°41' W 001°57'2 4.2
2018-Jun-09 18:00N 46°39' W 001°57'3 6.8
2018-Jun-09 17:30N 46°35' W 001°57'3 6.7
2018-Jun-09 17:00N 46°32' W 001°57'3 6.6
2018-Jun-09 16:30N 46°28' W 001°57'3 6.5
2018-Jun-09 16:00N 46°25' W 001°56'7 7.0
2018-Jun-09 14:58N 46°18' W 001°54'5 7.6
2018-Jun-09 14:17N 46°13' W 001°53'3 7.8
2018-Jun-09 13:55N 46°11' W 001°50'9 8.3
2018-Jun-09 12:50N 46°04' W 001°42'6 7.9
2018-Jun-09 12:06N 45°58' W 001°41'10 5.2
2018-Jun-09 10:08N 45°48' W 001°38'35 1.3
2018-Jun-08 08:08N 46°21' W 001°54'1 8.5
2018-Jun-08 07:58N 46°22' W 001°54'4 8.7
2018-Jun-08 07:30N 46°26' W 001°56'4 8.8
2018-Jun-08 07:00N 46°31' W 001°57'4 8.7
2018-Jun-08 06:30N 46°35' W 001°58'4 8.6
2018-Jun-08 06:00N 46°39' W 001°57'3 0.1
2018-Jun-07 11:40N 46°42' W 001°57'1 6.2
2018-Jun-07 11:31N 46°41' W 001°58'5 9.1
2018-Jun-07 11:00N 46°37' W 001°60'1 1.3
2018-Jun-07 10:30N 46°36' W 002°00'3 5.7
2018-Jun-07 10:00N 46°39' W 001°59'3 0.2
2018-Jun-06 18:13N 46°42' W 001°57'1 4.7
2018-Jun-06 18:00N 46°41' W 001°58'  

Dump ship's entire track history